Norcross, Georgia
Current Conditions -  °F | °C
As of 7:53 PM on Friday 19 Dec 2014 (Local Time) from KPDK Reporting Station
Clear Clear  
Wind Chill: 42°   Ceiling: Unl
Heat Index: 45°   Visibility: 10mi
Dew Point: 33°   Wind: 6mph
Humidity: 63%   Direction: 280°W
Pressure: 30.14"   Gusts: NA
Location:  33.94°N, 84.21°W
Report Text: KPDK 200053Z 28005KT 10SM CLR 07/01 A3014 RMK AO2 SLP216 T00720006
Loading
Personal Weather Stations






























Interactive Weather Map New forecast layout! Learn more

10-Day Weather Forecast

Advertisements
Track Severe Weather on mobile